Time;durP1;ratioP1;P1;durP2;ratioP2;P2;SDS_P1;SDS_P2;PMS_P1;PMS_P2;Temp;Humidity;BMP_temperature;BMP_pressure;BME280_temperature;BME280_humidity;BME280_pressure;Samples;Min_cycle;Max_cycle;Signal;HPM_P1;HPM_P2
2021/03/03 00:01:44;;;;;;;5.57;4.33;;;5.40;71.50;;;;;;5048578;28;20180;-79
2021/03/03 00:04:10;;;;;;;5.10;3.43;;;5.40;71.50;;;;;;5048693;28;20217;-79
2021/03/03 00:06:55;;;;;;;7.83;4.80;;;5.40;71.40;;;;;;5062052;28;20172;-78
2021/03/03 00:09:20;;;;;;;7.60;3.50;;;5.40;71.30;;;;;;5037236;28;20176;-78
2021/03/03 00:11:46;;;;;;;3.07;2.53;;;5.40;71.30;;;;;;5066130;28;20740;-77
2021/03/03 00:14:12;;;;;;;5.87;3.77;;;5.40;71.20;;;;;;5061907;28;20179;-77
2021/03/03 00:16:38;;;;;;;6.20;3.23;;;5.40;71.20;;;;;;5063831;28;21065;-79
2021/03/03 00:19:04;;;;;;;3.93;3.00;;;5.30;71.40;;;;;;5060663;28;20184;-78
2021/03/03 00:21:30;;;;;;;4.10;3.67;;;5.30;71.60;;;;;;5065960;28;20572;-78
2021/03/03 00:23:56;;;;;;;4.23;3.40;;;5.30;71.40;;;;;;5069569;28;20249;-78
2021/03/03 00:26:21;;;;;;;4.53;3.23;;;5.30;71.40;;;;;;5068105;28;20233;-78
2021/03/03 00:28:47;;;;;;;3.87;2.97;;;5.30;71.30;;;;;;5043354;28;20659;-78
2021/03/03 00:31:15;;;;;;;2.77;2.57;;;5.20;71.70;;;;;;5058533;28;20206;-78
2021/03/03 00:33:41;;;;;;;2.73;2.53;;;5.20;71.80;;;;;;5031007;28;20185;-78
2021/03/03 00:36:07;;;;;;;2.77;2.57;;;5.30;71.70;;;;;;5049716;28;20243;-77
2021/03/03 00:38:33;;;;;;;5.10;3.13;;;5.20;71.80;;;;;;5053442;28;20175;-79
2021/03/03 00:40:59;;;;;;;2.97;2.50;;;5.30;71.70;;;;;;5069314;28;20183;-79
2021/03/03 00:43:25;;;;;;;3.67;2.50;;;5.30;71.90;;;;;;5069397;28;20250;-78
2021/03/03 00:46:11;;;;;;;4.37;2.80;;;5.30;72.00;;;;;;5059111;28;20209;-78
2021/03/03 00:48:37;;;;;;;4.63;3.03;;;5.30;71.90;;;;;;5068092;28;20256;-78
2021/03/03 00:51:03;;;;;;;4.00;3.30;;;5.30;71.90;;;;;;5069061;28;20724;-78
2021/03/03 00:53:29;;;;;;;2.63;2.50;;;5.30;72.00;;;;;;5062112;28;20180;-78
2021/03/03 00:55:55;;;;;;;3.00;2.73;;;5.30;72.00;;;;;;5048971;28;20263;-80
2021/03/03 00:58:21;;;;;;;2.97;2.67;;;5.30;72.10;;;;;;5051141;28;20211;-79
2021/03/03 01:00:47;;;;;;;4.53;3.50;;;5.30;72.10;;;;;;5031430;28;20191;-79
2021/03/03 01:03:13;;;;;;;4.77;2.53;;;5.30;72.20;;;;;;5048938;28;20183;-79
2021/03/03 01:05:43;;;;;;;3.17;2.80;;;5.30;72.20;;;;;;5049084;28;20720;-78
2021/03/03 01:08:09;;;;;;;3.37;2.97;;;5.30;72.20;;;;;;5053837;28;20229;-79
2021/03/03 01:10:36;;;;;;;6.13;2.43;;;5.30;72.20;;;;;;5062898;28;20206;-79
2021/03/03 01:13:02;;;;;;;4.20;3.60;;;5.30;72.30;;;;;;5048786;28;20180;-78
2021/03/03 01:15:28;;;;;;;4.93;3.10;;;5.30;72.30;;;;;;5048934;28;20164;-79
2021/03/03 01:17:59;;;;;;;5.80;2.57;;;5.30;72.40;;;;;;5068949;28;20215;-79
2021/03/03 01:20:26;;;;;;;2.90;2.63;;;5.30;72.50;;;;;;5068613;28;20240;-78
2021/03/03 01:22:52;;;;;;;4.87;2.53;;;5.30;72.30;;;;;;5068142;28;20206;-78
2021/03/03 01:25:17;;;;;;;4.57;2.50;;;5.20;72.50;;;;;;5066097;28;20205;-77
2021/03/03 01:27:43;;;;;;;4.23;2.80;;;5.30;72.40;;;;;;5039367;28;20185;-77
2021/03/03 01:30:10;;;;;;;2.47;2.13;;;5.30;72.60;;;;;;5038794;28;20231;-77
2021/03/03 01:32:35;;;;;;;4.83;2.67;;;5.20;72.70;;;;;;5067837;28;20217;-78
2021/03/03 01:35:01;;;;;;;3.53;3.13;;;5.20;72.70;;;;;;5048133;28;20206;-78
2021/03/03 01:37:27;;;;;;;2.67;2.53;;;5.20;72.70;;;;;;5048759;28;20171;-79
2021/03/03 01:39:52;;;;;;;5.50;3.10;;;5.30;72.50;;;;;;5030933;28;20175;-79
2021/03/03 01:42:18;;;;;;;2.57;2.17;;;5.20;72.50;;;;;;5033052;28;20574;-79
2021/03/03 01:44:44;;;;;;;4.13;2.93;;;5.20;73.00;;;;;;5051038;28;20313;-79
2021/03/03 01:47:10;;;;;;;1.90;1.73;;;5.20;73.10;;;;;;5068197;28;20672;-79
2021/03/03 01:49:35;;;;;;;6.00;3.03;;;5.20;72.70;;;;;;5065559;28;20199;-79
2021/03/03 01:52:20;;;;;;;4.73;2.20;;;5.30;72.60;;;;;;5068554;28;20292;-79
2021/03/03 01:54:46;;;;;;;4.33;2.10;;;5.30;72.50;;;;;;5069142;28;20186;-79
2021/03/03 01:57:12;;;;;;;2.20;2.03;;;5.20;72.60;;;;;;5057594;28;20187;-79
2021/03/03 01:59:38;;;;;;;3.07;2.70;;;5.20;72.60;;;;;;5049136;28;20175;-78
2021/03/03 02:02:05;;;;;;;3.77;2.23;;;5.20;72.80;;;;;;5062410;28;20183;-78
2021/03/03 02:04:31;;;;;;;4.43;2.47;;;5.20;72.80;;;;;;5050595;28;20914;-78
2021/03/03 02:07:06;;;;;;;2.33;2.13;;;5.20;72.80;;;;;;5059050;28;20195;-77
2021/03/03 02:09:56;;;;;;;3.07;2.80;;;5.20;72.80;;;;;;5046621;28;20196;-79
2021/03/03 02:12:43;;;;;;;3.07;2.47;;;5.20;72.70;;;;;;5031080;28;20248;-79
2021/03/03 02:15:10;;;;;;;3.37;2.77;;;5.10;73.20;;;;;;5067244;28;20232;-79
2021/03/03 02:17:40;;;;;;;4.07;2.47;;;5.10;73.40;;;;;;5068342;28;20899;-79
2021/03/03 02:20:09;;;;;;;4.47;2.50;;;5.10;73.30;;;;;;5067161;28;20195;-79
2021/03/03 02:22:54;;;;;;;3.33;2.83;;;5.10;73.30;;;;;;5068911;28;20258;-80
2021/03/03 02:25:28;;;;;;;3.63;2.83;;;5.10;73.40;;;;;;5050577;28;20171;-80
2021/03/03 02:27:56;;;;;;;3.67;2.67;;;5.00;73.50;;;;;;5052399;28;20943;-80
2021/03/03 02:30:23;;;;;;;4.87;3.03;;;5.00;73.50;;;;;;5036351;28;20584;-80
2021/03/03 02:32:50;;;;;;;2.57;2.37;;;5.00;73.60;;;;;;5069203;28;20613;-80
2021/03/03 02:35:16;;;;;;;5.00;2.87;;;5.00;73.80;;;;;;5071892;28;20171;-78
2021/03/03 02:37:43;;;;;;;2.53;1.93;;;5.00;73.70;;;;;;5071607;28;20182;-79
2021/03/03 02:40:10;;;;;;;9.43;3.60;;;5.00;73.70;;;;;;5048116;28;20679;-80
2021/03/03 02:42:38;;;;;;;3.30;2.83;;;4.90;73.90;;;;;;5051943;28;20172;-80
2021/03/03 02:45:14;;;;;;;4.87;3.10;;;4.80;74.00;;;;;;5069401;28;20175;-79
2021/03/03 02:47:42;;;;;;;3.83;3.10;;;4.80;74.40;;;;;;5053059;28;20262;-80
2021/03/03 02:50:09;;;;;;;3.77;2.67;;;4.70;74.60;;;;;;5046201;28;20203;-80
2021/03/03 02:52:51;;;;;;;5.17;3.63;;;4.70;74.60;;;;;;5065000;28;20258;-80
2021/03/03 02:55:17;;;;;;;3.90;3.47;;;4.60;74.50;;;;;;5034517;28;20270;-80
2021/03/03 02:57:43;;;;;;;10.23;4.07;;;4.60;74.80;;;;;;5051486;28;20178;-79
2021/03/03 03:00:19;;;;;;;6.30;3.83;;;4.50;74.80;;;;;;5049684;28;20188;-80
2021/03/03 03:02:48;;;;;;;3.33;3.03;;;4.50;75.00;;;;;;5038919;28;20178;-80
2021/03/03 03:05:16;;;;;;;3.27;2.43;;;4.40;75.10;;;;;;5060632;28;20183;-79
2021/03/03 03:07:48;;;;;;;3.00;2.80;;;4.40;75.20;;;;;;5051642;28;20190;-78
2021/03/03 03:10:16;;;;;;;7.10;3.57;;;4.30;75.30;;;;;;5069755;28;20199;-79
2021/03/03 03:12:46;;;;;;;5.50;3.70;;;4.30;75.70;;;;;;5070016;28;20254;-79
2021/03/03 03:15:17;;;;;;;3.13;2.53;;;4.30;76.10;;;;;;5055519;28;20171;-79
2021/03/03 03:17:46;;;;;;;4.47;3.63;;;4.20;75.90;;;;;;5052854;28;20225;-80
2021/03/03 03:20:15;;;;;;;11.37;5.23;;;4.20;76.00;;;;;;5052379;28;20194;-80
2021/03/03 03:22:41;;;;;;;5.17;4.67;;;4.10;76.30;;;;;;5034715;28;20183;-80
2021/03/03 03:25:09;;;;;;;5.13;4.57;;;4.00;76.10;;;;;;5032485;28;20250;-80
2021/03/03 03:27:35;;;;;;;9.87;5.70;;;3.90;76.40;;;;;;5032606;28;20564;-79
2021/03/03 03:30:03;;;;;;;5.17;4.53;;;3.80;76.70;;;;;;5050894;28;20195;-80
2021/03/03 03:32:30;;;;;;;5.40;4.83;;;3.80;76.70;;;;;;5050733;28;20179;-79
2021/03/03 03:34:56;;;;;;;8.70;5.57;;;3.70;76.80;;;;;;5085187;28;20647;-80
2021/03/03 03:37:24;;;;;;;10.20;6.10;;;3.60;76.90;;;;;;5071142;28;20170;-81
2021/03/03 03:39:50;;;;;;;7.70;5.17;;;3.50;77.40;;;;;;5043007;28;20666;-80
2021/03/03 03:42:18;;;;;;;7.87;5.50;;;3.50;77.60;;;;;;5070608;28;20229;-80
2021/03/03 03:44:46;;;;;;;8.47;6.03;;;3.40;77.50;;;;;;5068425;28;20182;-79
2021/03/03 03:47:16;;;;;;;7.00;5.53;;;3.30;77.50;;;;;;5050548;28;20176;-79
2021/03/03 03:49:43;;;;;;;9.77;5.23;;;3.30;77.60;;;;;;5064469;28;20199;-79
2021/03/03 03:52:09;;;;;;;11.40;6.00;;;3.20;78.10;;;;;;5048092;28;20262;-79
2021/03/03 03:54:35;;;;;;;6.87;5.23;;;3.20;78.10;;;;;;5054197;28;20255;-79
2021/03/03 03:57:01;;;;;;;6.57;5.37;;;3.10;78.80;;;;;;5048767;28;20288;-79
2021/03/03 03:59:26;;;;;;;4.50;3.77;;;3.10;78.80;;;;;;5053220;28;20175;-79
2021/03/03 04:01:52;;;;;;;5.90;4.57;;;3.00;78.70;;;;;;5068280;28;20235;-79
2021/03/03 04:04:18;;;;;;;6.17;3.90;;;3.00;78.90;;;;;;5068014;28;20179;-80
2021/03/03 04:06:43;;;;;;;5.27;4.23;;;3.00;79.40;;;;;;5069489;28;20179;-78
2021/03/03 04:09:09;;;;;;;6.27;4.47;;;3.00;79.40;;;;;;5038985;28;20183;-79
2021/03/03 04:11:35;;;;;;;4.50;3.80;;;3.00;79.60;;;;;;5050396;28;20222;-80
2021/03/03 04:14:00;;;;;;;6.57;4.17;;;3.00;80.00;;;;;;5040561;28;20265;-80
2021/03/03 04:16:26;;;;;;;7.50;4.37;;;3.00;80.10;;;;;;5059084;28;20190;-79
2021/03/03 04:18:52;;;;;;;4.57;3.27;;;3.00;80.20;;;;;;5061800;28;20577;-79
2021/03/03 04:21:17;;;;;;;9.10;3.67;;;3.00;80.10;;;;;;5078354;28;20201;-79
2021/03/03 04:23:43;;;;;;;5.50;4.00;;;3.00;80.20;;;;;;5064619;28;20642;-80
2021/03/03 04:26:09;;;;;;;10.53;4.40;;;3.00;80.20;;;;;;5059808;28;20195;-80
2021/03/03 04:28:34;;;;;;;3.67;2.97;;;3.00;79.90;;;;;;5049360;28;20176;-79
2021/03/03 04:31:00;;;;;;;5.47;4.00;;;3.00;80.00;;;;;;5049519;28;20246;-79
2021/03/03 04:33:26;;;;;;;6.63;3.87;;;3.00;80.00;;;;;;5061040;28;20278;-80
2021/03/03 04:35:51;;;;;;;5.67;3.93;;;3.00;80.10;;;;;;5051641;28;20183;-79
2021/03/03 04:38:17;;;;;;;3.77;3.20;;;2.90;79.90;;;;;;5069572;28;20202;-80
2021/03/03 04:40:43;;;;;;;5.30;3.43;;;2.90;80.10;;;;;;5069477;28;20182;-80
2021/03/03 04:43:08;;;;;;;4.40;3.97;;;2.90;80.50;;;;;;5068913;28;20194;-80
2021/03/03 04:45:34;;;;;;;3.30;3.03;;;2.90;80.50;;;;;;5068057;28;20187;-80
2021/03/03 04:48:00;;;;;;;4.73;3.73;;;2.90;80.80;;;;;;5064990;28;20202;-77
2021/03/03 04:50:26;;;;;;;8.63;4.20;;;2.90;81.30;;;;;;5060364;28;20234;-79
2021/03/03 04:52:52;;;;;;;5.57;3.53;;;2.90;81.00;;;;;;5049016;28;20188;-79
2021/03/03 04:55:18;;;;;;;8.37;4.20;;;2.90;81.20;;;;;;5048833;28;20237;-79
2021/03/03 04:57:43;;;;;;;8.13;4.60;;;2.80;81.10;;;;;;5051050;28;20179;-78
2021/03/03 05:00:10;;;;;;;4.73;4.07;;;2.80;81.40;;;;;;5048832;28;20186;-80
2021/03/03 05:02:35;;;;;;;4.47;3.63;;;2.90;81.60;;;;;;5035269;28;20183;-78
2021/03/03 05:05:01;;;;;;;3.30;3.00;;;2.80;81.40;;;;;;5052335;28;20241;-78
2021/03/03 05:07:29;;;;;;;5.73;3.47;;;2.90;82.00;;;;;;5031204;28;20326;-78
2021/03/03 05:09:55;;;;;;;4.23;3.00;;;2.90;82.10;;;;;;5049274;28;20211;-78
2021/03/03 05:12:21;;;;;;;4.60;3.03;;;2.90;82.50;;;;;;5066273;28;20183;-78
2021/03/03 05:14:47;;;;;;;6.40;3.93;;;2.90;83.40;;;;;;5068792;28;20574;-79
2021/03/03 05:17:14;;;;;;;9.43;4.03;;;2.90;83.80;;;;;;5068704;28;20244;-79
2021/03/03 05:19:39;;;;;;;4.73;3.93;;;3.00;84.10;;;;;;5063912;28;20195;-80
2021/03/03 05:22:05;;;;;;;4.30;4.07;;;3.00;84.10;;;;;;5051166;28;20175;-80
2021/03/03 05:24:31;;;;;;;5.77;3.87;;;3.00;84.00;;;;;;5040295;28;20377;-80
2021/03/03 05:26:56;;;;;;;4.63;3.87;;;3.00;83.90;;;;;;5065972;28;20187;-80
2021/03/03 05:29:22;;;;;;;5.43;3.90;;;3.10;83.90;;;;;;5048624;28;20570;-80
2021/03/03 05:34:32;;;;;;;5.77;3.73;;;3.20;84.20;;;;;;5069561;28;20262;-80
2021/03/03 05:36:58;;;;;;;5.90;3.00;;;3.20;84.30;;;;;;5048320;28;20262;-80
2021/03/03 05:39:24;;;;;;;4.83;3.87;;;3.30;84.20;;;;;;5046238;28;20179;-80
2021/03/03 05:41:50;;;;;;;7.07;4.77;;;3.40;84.50;;;;;;5051856;28;20187;-79
2021/03/03 05:44:16;;;;;;;7.17;3.73;;;3.40;84.50;;;;;;5050929;28;20176;-78
2021/03/03 05:46:45;;;;;;;7.93;4.53;;;3.50;84.30;;;;;;5048485;28;20176;-79
2021/03/03 05:49:15;;;;;;;7.13;4.03;;;3.50;84.10;;;;;;5048410;28;20230;-78
2021/03/03 05:51:42;;;;;;;6.43;4.97;;;3.60;84.30;;;;;;5048877;28;20222;-80
2021/03/03 05:54:09;;;;;;;6.10;4.57;;;3.60;84.30;;;;;;5065586;28;20187;-80
2021/03/03 05:56:36;;;;;;;7.43;5.00;;;3.70;83.80;;;;;;5064191;28;20175;-79
2021/03/03 05:59:02;;;;;;;12.20;5.67;;;3.80;83.70;;;;;;5030361;28;20195;-78
2021/03/03 06:01:31;;;;;;;6.17;4.40;;;3.80;83.60;;;;;;5051798;28;20179;-78
2021/03/03 06:03:58;;;;;;;11.57;6.60;;;3.90;83.60;;;;;;5071823;28;20236;-78
2021/03/03 06:06:25;;;;;;;8.33;4.73;;;3.90;83.80;;;;;;5053353;28;20677;-79
2021/03/03 06:08:51;;;;;;;9.13;5.17;;;4.00;83.80;;;;;;5053726;28;20780;-79
2021/03/03 06:11:18;;;;;;;8.70;5.80;;;4.10;83.40;;;;;;5053511;28;20194;-79
2021/03/03 06:13:44;;;;;;;8.10;5.50;;;4.10;83.60;;;;;;5069912;28;20179;-78
2021/03/03 06:16:10;;;;;;;9.83;6.03;;;4.20;83.20;;;;;;5067068;28;20186;-79
2021/03/03 06:18:36;;;;;;;7.30;4.97;;;4.30;83.00;;;;;;5059954;28;20186;-79
2021/03/03 06:21:02;;;;;;;8.67;7.13;;;4.40;82.60;;;;;;5053719;28;20596;-79
2021/03/03 06:23:30;;;;;;;8.70;7.07;;;4.50;82.50;;;;;;5071612;28;20183;-80
2021/03/03 06:25:55;;;;;;;10.47;6.80;;;4.50;82.40;;;;;;5053640;28;20269;-79
2021/03/03 06:28:40;;;;;;;8.73;5.97;;;4.50;82.40;;;;;;5071317;28;20265;-79
2021/03/03 06:31:24;;;;;;;8.90;5.90;;;4.60;81.90;;;;;;5065507;28;20217;-78
2021/03/03 06:33:52;;;;;;;12.27;6.80;;;4.70;81.50;;;;;;5066537;28;20174;-79
2021/03/03 06:36:28;;;;;;;9.57;5.73;;;4.70;81.50;;;;;;5053268;28;20716;-79
2021/03/03 06:38:54;;;;;;;12.33;6.00;;;4.80;81.50;;;;;;5071862;28;20159;-81
2021/03/03 06:41:20;;;;;;;10.53;6.30;;;4.90;81.20;;;;;;5051149;28;20676;-81
2021/03/03 06:43:58;;;;;;;16.17;5.87;;;5.00;80.80;;;;;;5045984;28;20221;-80
2021/03/03 06:46:24;;;;;;;10.93;6.93;;;5.00;80.70;;;;;;5037747;28;20172;-80
2021/03/03 06:48:50;;;;;;;7.10;4.70;;;5.10;80.80;;;;;;5058740;28;20249;-80
2021/03/03 06:51:30;;;;;;;8.77;5.00;;;5.10;80.60;;;;;;5054903;28;20834;-80
2021/03/03 06:53:57;;;;;;;8.13;3.93;;;5.20;80.70;;;;;;5071607;28;20163;-78
2021/03/03 06:56:34;;;;;;;6.87;4.90;;;5.20;80.50;;;;;;5071577;28;20669;-81
2021/03/03 06:59:26;;;;;;;7.23;5.37;;;5.30;80.40;;;;;;5070092;28;20175;-79
2021/03/03 07:01:56;;;;;;;8.00;5.37;;;5.40;80.00;;;;;;5055729;28;20660;-79
2021/03/03 07:04:35;;;;;;;13.37;4.90;;;5.40;80.10;;;;;;5066494;28;20163;-78
2021/03/03 07:07:15;;;;;;;13.23;5.60;;;5.50;80.00;;;;;;5060187;28;20722;-79
2021/03/03 07:09:53;;;;;;;7.67;4.90;;;5.60;80.10;;;;;;5052768;28;20195;-80
2021/03/03 07:12:19;;;;;;;7.00;4.70;;;5.60;80.10;;;;;;5037315;28;20239;-79
2021/03/03 07:15:06;;;;;;;7.93;4.27;;;5.60;80.20;;;;;;5032591;28;20278;-79
2021/03/03 07:17:39;;;;;;;6.87;4.67;;;5.70;79.90;;;;;;5054525;28;20678;-79
2021/03/03 07:20:16;;;;;;;7.07;4.67;;;5.80;79.90;;;;;;5052351;28;20195;-78
2021/03/03 07:22:49;;;;;;;7.00;4.40;;;5.90;79.60;;;;;;5070565;28;20646;-79
2021/03/03 07:25:17;;;;;;;6.93;4.87;;;6.00;79.40;;;;;;5032561;28;20191;-80
2021/03/03 07:27:45;;;;;;;10.63;5.10;;;6.20;79.20;;;;;;5042880;28;20187;-80
2021/03/03 07:30:15;;;;;;;6.53;4.80;;;6.30;79.10;;;;;;5070278;28;20720;-84
2021/03/03 07:32:41;;;;;;;7.57;4.80;;;6.40;78.50;;;;;;5039637;28;20170;-83
2021/03/03 07:35:09;;;;;;;9.27;4.93;;;6.50;78.20;;;;;;5074438;28;20174;-83
2021/03/03 07:37:37;;;;;;;10.53;5.10;;;6.60;77.90;;;;;;5091912;28;20168;-84
2021/03/03 07:40:16;;;;;;;7.60;5.83;;;6.70;77.90;;;;;;5057685;28;20227;-77
2021/03/03 07:42:53;;;;;;;6.77;5.83;;;6.80;77.90;;;;;;5043566;28;20174;-82
2021/03/03 07:45:20;;;;;;;8.60;6.10;;;6.90;77.50;;;;;;5052726;28;20179;-82
2021/03/03 07:47:49;;;;;;;8.27;5.73;;;7.10;77.70;;;;;;5069836;28;20179;-82
2021/03/03 07:50:19;;;;;;;7.73;5.57;;;7.30;77.30;;;;;;5060030;28;20212;-83
2021/03/03 07:52:54;;;;;;;12.63;6.97;;;7.70;76.80;;;;;;5048947;28;20182;-76
2021/03/03 07:55:21;;;;;;;6.80;5.10;;;8.10;74.70;;;;;;5040942;28;20189;-77
2021/03/03 07:57:49;;;;;;;8.77;5.77;;;8.70;73.60;;;;;;5045573;28;20171;-76
2021/03/03 08:00:19;;;;;;;11.60;6.07;;;9.20;72.60;;;;;;5060424;28;20184;-83
2021/03/03 08:02:50;;;;;;;7.57;5.33;;;9.90;71.60;;;;;;5066180;28;20175;-76
2021/03/03 08:05:39;;;;;;;10.03;6.77;;;10.60;70.20;;;;;;5048832;28;20234;-77
2021/03/03 08:08:22;;;;;;;10.80;6.57;;;11.50;68.00;;;;;;4990334;28;20612;-76
2021/03/03 08:10:50;;;;;;;11.73;6.57;;;12.10;67.20;;;;;;5000270;28;20618;-74
2021/03/03 08:13:31;;;;;;;12.67;7.63;;;13.00;65.60;;;;;;5001180;28;20193;-77
2021/03/03 08:15:58;;;;;;;12.75;5.88;;;13.60;64.20;;;;;;4970709;28;20192;-78
2021/03/03 08:18:29;;;;;;;8.68;6.07;;;14.30;62.70;;;;;;4986973;28;20193;-75
2021/03/03 08:20:56;;;;;;;9.63;6.45;;;14.90;61.00;;;;;;4995426;28;20198;-77
2021/03/03 08:23:34;;;;;;;10.05;6.38;;;15.40;60.20;;;;;;4969695;28;20181;-77
2021/03/03 08:26:29;;;;;;;8.48;6.22;;;15.90;59.00;;;;;;4971918;28;20276;-79
2021/03/03 08:29:26;;;;;;;9.60;6.68;;;16.30;58.40;;;;;;5005651;28;20662;-77
2021/03/03 08:31:52;;;;;;;12.30;7.30;;;16.80;57.40;;;;;;4998511;28;20285;-79
2021/03/03 08:34:18;;;;;;;8.55;6.18;;;17.10;56.20;;;;;;4974127;28;20832;-80
2021/03/03 08:36:50;;;;;;;7.75;6.65;;;17.40;56.10;;;;;;4987945;28;20609;-79
2021/03/03 08:39:15;;;;;;;9.85;7.72;;;17.90;55.10;;;;;;4992639;28;20888;-81
2021/03/03 08:41:41;;;;;;;10.43;6.75;;;18.40;54.90;;;;;;4989059;28;20268;-81
2021/03/03 08:44:14;;;;;;;12.25;7.10;;;18.80;53.70;;;;;;5006629;28;20274;-80
2021/03/03 08:46:46;;;;;;;10.88;6.82;;;19.10;53.10;;;;;;5049819;28;20175;-81
2021/03/03 08:49:12;;;;;;;8.38;7.13;;;19.40;52.60;;;;;;5063180;28;20194;-81
2021/03/03 08:51:39;;;;;;;8.73;6.63;;;19.80;52.50;;;;;;5068298;28;20207;-81
2021/03/03 08:54:35;;;;;;;8.32;6.60;;;20.30;52.10;;;;;;5049877;28;20567;-84
2021/03/03 08:57:01;;;;;;;9.43;7.53;;;20.70;50.90;;;;;;5081637;28;20171;-79
2021/03/03 08:59:32;;;;;;;11.88;7.88;;;20.60;49.70;;;;;;5067206;28;20692;-77
2021/03/03 09:02:18;;;;;;;9.27;7.30;;;20.50;50.70;;;;;;5042762;28;20261;-78
2021/03/03 09:04:56;;;;;;;10.77;7.53;;;20.70;50.30;;;;;;5067743;28;20178;-79
2021/03/03 09:07:26;;;;;;;10.25;7.60;;;21.10;48.80;;;;;;5050441;28;20174;-76
2021/03/03 09:09:57;;;;;;;9.32;6.90;;;21.00;49.30;;;;;;5067254;28;20210;-76
2021/03/03 09:12:28;;;;;;;7.75;5.95;;;21.40;49.80;;;;;;5067041;28;20170;-82
2021/03/03 09:14:56;;;;;;;8.40;6.25;;;22.00;49.30;;;;;;5057889;28;20174;-82
2021/03/03 09:17:28;;;;;;;9.88;6.97;;;22.70;48.90;;;;;;5064017;28;20651;-80
2021/03/03 09:19:55;;;;;;;8.63;7.15;;;23.40;47.30;;;;;;5048865;28;20316;-77
2021/03/03 09:22:23;;;;;;;8.45;7.10;;;23.70;46.80;;;;;;5063736;28;20179;-81
2021/03/03 09:24:49;;;;;;;9.38;6.50;;;24.00;46.30;;;;;;5059522;28;20190;-81
2021/03/03 09:27:16;;;;;;;9.35;6.43;;;24.40;46.30;;;;;;5067567;28;20231;-81
2021/03/03 09:29:42;;;;;;;6.95;6.35;;;25.00;46.30;;;;;;5067635;28;20256;-81
2021/03/03 09:32:22;;;;;;;6.63;5.25;;;25.70;45.50;;;;;;5048696;28;20655;-80
2021/03/03 09:34:47;;;;;;;12.13;7.85;;;26.20;43.50;;;;;;5067952;28;20167;-81
2021/03/03 09:37:14;;;;;;;9.18;6.82;;;25.90;43.80;;;;;;5070760;28;20185;-79
2021/03/03 09:39:40;;;;;;;7.72;6.05;;;25.70;44.10;;;;;;5054183;28;20733;-80
2021/03/03 09:42:07;;;;;;;8.50;5.53;;;26.00;44.50;;;;;;5054062;28;20228;-81
2021/03/03 09:44:48;;;;;;;7.93;6.20;;;26.40;44.60;;;;;;5054611;28;20546;-80
2021/03/03 09:47:27;;;;;;;13.57;7.50;;;26.80;43.00;;;;;;5052471;28;20156;-80
2021/03/03 09:49:53;;;;;;;7.65;6.50;;;26.90;42.30;;;;;;5076246;28;20195;-80
2021/03/03 09:52:19;;;;;;;8.48;7.40;;;26.90;43.70;;;;;;5034317;28;20179;-80
2021/03/03 09:54:45;;;;;;;9.43;7.53;;;26.50;43.20;;;;;;5045344;28;20190;-80
2021/03/03 09:57:22;;;;;;;9.20;7.07;;;26.10;42.60;;;;;;5070267;28;20181;-81
2021/03/03 09:59:54;;;;;;;9.32;7.50;;;25.90;42.90;;;;;;5071933;28;20248;-80
2021/03/03 10:02:23;;;;;;;7.65;5.95;;;25.80;43.70;;;;;;5072013;28;20171;-79
2021/03/03 10:04:50;;;;;;;7.32;6.60;;;25.60;43.00;;;;;;5071882;28;20179;-81
2021/03/03 10:07:22;;;;;;;7.45;6.68;;;25.40;43.00;;;;;;5071566;28;20183;-80
2021/03/03 10:09:53;;;;;;;7.45;6.75;;;25.70;44.50;;;;;;5071500;28;20203;-81
2021/03/03 10:12:21;;;;;;;9.00;6.95;;;26.10;42.80;;;;;;5071779;28;20167;-81
2021/03/03 10:14:53;;;;;;;7.65;6.88;;;26.10;43.60;;;;;;5056897;28;20258;-81
2021/03/03 10:17:37;;;;;;;9.50;6.95;;;26.30;42.80;;;;;;5071427;28;20236;-81
2021/03/03 10:20:07;;;;;;;9.68;6.88;;;26.70;42.30;;;;;;5033172;28;20222;-81
2021/03/03 10:22:34;;;;;;;12.93;7.45;;;27.30;43.50;;;;;;5051673;28;20179;-81
2021/03/03 10:25:06;;;;;;;8.30;6.30;;;27.80;41.60;;;;;;5070873;28;20206;-82
2021/03/03 10:27:40;;;;;;;8.27;7.00;;;28.40;42.80;;;;;;5071458;28;20175;-80
2021/03/03 10:30:26;;;;;;;9.27;5.80;;;28.70;41.70;;;;;;5053289;28;20191;-80
2021/03/03 10:32:54;;;;;;;8.82;6.50;;;28.60;40.50;;;;;;5036755;28;20224;-81
2021/03/03 10:35:24;;;;;;;8.52;7.65;;;28.90;41.10;;;;;;5053486;28;20174;-81
2021/03/03 10:37:51;;;;;;;6.65;5.88;;;29.00;40.20;;;;;;5071401;28;20175;-82
2021/03/03 10:40:18;;;;;;;7.75;6.40;;;28.90;41.00;;;;;;5053594;28;20685;-81
2021/03/03 10:42:44;;;;;;;6.43;5.90;;;29.10;40.40;;;;;;5071489;28;20566;-80
2021/03/03 10:45:21;;;;;;;9.18;6.93;;;29.20;40.10;;;;;;5052414;28;20171;-80
2021/03/03 10:47:50;;;;;;;7.97;6.15;;;29.20;39.90;;;;;;5032884;28;20180;-80
2021/03/03 10:50:18;;;;;;;9.50;5.85;;;29.10;40.30;;;;;;5032739;28;20234;-80
2021/03/03 10:53:01;;;;;;;7.53;5.63;;;29.10;41.10;;;;;;5050931;28;20168;-80
2021/03/03 10:55:36;;;;;;;8.20;6.43;;;29.60;40.00;;;;;;5043602;28;20181;-79
2021/03/03 10:58:13;;;;;;;6.00;5.15;;;30.00;40.10;;;;;;5061228;28;20174;-80
2021/03/03 11:00:59;;;;;;;6.20;5.38;;;30.00;39.50;;;;;;5050802;28;20245;-79
2021/03/03 11:03:25;;;;;;;6.85;5.80;;;30.30;39.00;;;;;;5060809;28;20275;-80
2021/03/03 11:05:53;;;;;;;5.85;5.22;;;30.70;39.50;;;;;;5061105;28;20211;-80
2021/03/03 11:08:20;;;;;;;5.95;5.35;;;31.30;38.30;;;;;;5069068;28;20252;-80
2021/03/03 11:10:46;;;;;;;6.47;5.72;;;31.70;39.10;;;;;;5051920;28;20202;-81
2021/03/03 11:13:12;;;;;;;5.68;5.15;;;32.10;37.80;;;;;;5070545;28;20214;-81
2021/03/03 11:15:56;;;;;;;6.68;4.90;;;32.00;36.80;;;;;;5070708;28;21157;-82
2021/03/03 11:18:22;;;;;;;4.95;4.43;;;32.30;37.50;;;;;;5070993;28;20175;-80
2021/03/03 11:20:48;;;;;;;4.90;4.47;;;32.70;38.60;;;;;;5070103;28;20221;-81
2021/03/03 11:23:13;;;;;;;5.43;4.93;;;33.10;38.70;;;;;;5052264;28;20269;-82
2021/03/03 11:25:39;;;;;;;8.52;4.97;;;33.30;36.70;;;;;;5051437;28;20175;-81
2021/03/03 11:28:05;;;;;;;5.47;5.13;;;33.00;37.00;;;;;;5069358;28;20186;-80
2021/03/03 11:30:30;;;;;;;9.77;5.25;;;33.00;36.60;;;;;;5051591;28;20210;-81
2021/03/03 11:32:56;;;;;;;5.57;5.13;;;33.10;36.50;;;;;;5069897;28;20185;-81
2021/03/03 11:35:22;;;;;;;4.70;4.40;;;33.20;38.50;;;;;;5062179;28;20643;-80
2021/03/03 11:37:48;;;;;;;4.35;4.05;;;33.40;37.60;;;;;;5049677;28;20408;-81
2021/03/03 11:40:14;;;;;;;4.72;4.40;;;33.50;37.00;;;;;;5050340;28;20238;-81
2021/03/03 11:42:40;;;;;;;4.32;4.00;;;33.60;37.40;;;;;;5049981;28;20191;-81
2021/03/03 11:45:06;;;;;;;4.43;4.18;;;33.60;36.70;;;;;;5050101;28;20292;-82
2021/03/03 11:47:33;;;;;;;3.70;3.40;;;33.50;37.10;;;;;;5065529;28;20312;-81
2021/03/03 11:49:59;;;;;;;4.32;4.03;;;33.50;36.30;;;;;;5068951;28;20171;-81
2021/03/03 11:52:25;;;;;;;4.55;3.72;;;33.70;36.80;;;;;;5068657;28;20178;-81
2021/03/03 11:54:51;;;;;;;6.45;4.32;;;34.00;36.70;;;;;;5069597;28;20269;-81
2021/03/03 11:57:17;;;;;;;3.45;3.15;;;34.20;36.70;;;;;;5069206;28;20189;-83
2021/03/03 11:59:42;;;;;;;3.72;3.53;;;34.50;37.40;;;;;;5068336;28;20174;-80
2021/03/03 12:02:08;;;;;;;4.63;3.67;;;34.70;36.00;;;;;;5068576;28;20265;-73
2021/03/03 12:04:34;;;;;;;3.30;3.15;;;34.80;34.70;;;;;;5067052;28;20775;-78
2021/03/03 12:07:00;;;;;;;4.03;3.72;;;34.80;36.50;;;;;;5061365;28;20182;-77
2021/03/03 12:09:25;;;;;;;3.50;3.30;;;34.80;33.60;;;;;;5049472;28;20635;-74
2021/03/03 12:11:51;;;;;;;6.00;3.97;;;34.50;35.20;;;;;;5065937;28;20183;-73
2021/03/03 12:14:17;;;;;;;4.00;3.65;;;34.60;36.50;;;;;;5065534;28;20174;-75
2021/03/03 12:16:42;;;;;;;4.75;4.35;;;34.50;35.60;;;;;;5066350;28;20265;-77
2021/03/03 12:19:08;;;;;;;4.28;3.92;;;34.40;35.60;;;;;;5073017;28;20692;-77
2021/03/03 12:21:34;;;;;;;3.40;3.22;;;34.40;36.40;;;;;;5086637;28;20208;-73
2021/03/03 12:24:00;;;;;;;5.47;4.20;;;34.50;36.80;;;;;;5073629;28;20174;-75
2021/03/03 12:26:25;;;;;;;4.70;4.30;;;34.50;35.10;;;;;;5047888;28;20222;-73
2021/03/03 12:28:51;;;;;;;4.63;4.07;;;34.60;35.90;;;;;;5064169;28;20179;-76
2021/03/03 12:31:17;;;;;;;3.63;3.33;;;34.50;36.30;;;;;;5064302;28;20224;-72
2021/03/03 12:33:42;;;;;;;4.10;3.70;;;34.50;34.60;;;;;;5064703;28;20668;-73
2021/03/03 12:36:09;;;;;;;3.47;3.28;;;34.30;36.40;;;;;;5076307;28;20186;-74
2021/03/03 12:38:35;;;;;;;3.28;3.08;;;34.10;36.20;;;;;;5065572;28;20209;-74
2021/03/03 12:41:01;;;;;;;3.13;2.92;;;33.90;34.40;;;;;;5054873;28;20210;-74
2021/03/03 12:43:27;;;;;;;3.53;3.30;;;33.30;33.80;;;;;;5068927;28;20642;-73
2021/03/03 12:45:53;;;;;;;3.35;3.15;;;33.00;36.00;;;;;;5062522;28;20210;-73
2021/03/03 12:48:19;;;;;;;3.47;3.25;;;33.10;34.00;;;;;;5065360;28;20719;-74
2021/03/03 12:50:44;;;;;;;3.55;3.35;;;33.00;34.90;;;;;;5046724;28;20205;-73
2021/03/03 12:53:10;;;;;;;3.60;3.40;;;33.20;35.30;;;;;;5065085;28;20181;-73
2021/03/03 12:55:36;;;;;;;3.05;2.92;;;33.30;35.70;;;;;;5065669;28;20170;-71
2021/03/03 12:58:02;;;;;;;2.78;2.67;;;33.50;36.60;;;;;;5065478;28;20170;-72
2021/03/03 13:00:27;;;;;;;2.38;2.28;;;33.30;34.80;;;;;;5064434;28;20233;-71
2021/03/03 13:02:53;;;;;;;3.78;2.63;;;33.30;35.30;;;;;;5065071;28;20179;-71
2021/03/03 13:05:19;;;;;;;2.78;2.58;;;33.30;35.20;;;;;;5047190;28;20178;-72